sensor_id;sensor_type;location;lat;lon;timestamp;P1;durP1;ratioP1;P2;durP2;ratioP2
60722;SDS011;46574;52.818;6.516;2022-11-20T00:00:08;21.10;;;15.70;;
60722;SDS011;46574;52.818;6.516;2022-11-20T00:02:34;20.40;;;14.95;;
60722;SDS011;46574;52.818;6.516;2022-11-20T00:05:00;20.17;;;15.02;;
60722;SDS011;46574;52.818;6.516;2022-11-20T00:07:26;17.73;;;13.45;;
60722;SDS011;46574;52.818;6.516;2022-11-20T00:09:51;20.20;;;14.18;;
60722;SDS011;46574;52.818;6.516;2022-11-20T00:12:17;19.98;;;14.77;;
60722;SDS011;46574;52.818;6.516;2022-11-20T00:14:42;19.15;;;12.80;;
60722;SDS011;46574;52.818;6.516;2022-11-20T00:17:08;17.67;;;12.85;;
60722;SDS011;46574;52.818;6.516;2022-11-20T00:19:34;17.27;;;13.27;;
60722;SDS011;46574;52.818;6.516;2022-11-20T00:21:59;19.42;;;13.68;;
60722;SDS011;46574;52.818;6.516;2022-11-20T00:24:25;19.38;;;13.55;;
60722;SDS011;46574;52.818;6.516;2022-11-20T00:26:50;18.38;;;12.88;;
60722;SDS011;46574;52.818;6.516;2022-11-20T00:29:16;18.50;;;14.20;;
60722;SDS011;46574;52.818;6.516;2022-11-20T00:31:42;19.75;;;14.48;;
60722;SDS011;46574;52.818;6.516;2022-11-20T00:34:08;19.55;;;15.23;;
60722;SDS011;46574;52.818;6.516;2022-11-20T00:36:34;19.48;;;13.80;;
60722;SDS011;46574;52.818;6.516;2022-11-20T00:39:00;21.50;;;15.25;;
60722;SDS011;46574;52.818;6.516;2022-11-20T00:41:26;20.98;;;14.82;;
60722;SDS011;46574;52.818;6.516;2022-11-20T00:43:53;21.80;;;14.73;;
60722;SDS011;46574;52.818;6.516;2022-11-20T00:46:23;22.48;;;16.85;;
60722;SDS011;46574;52.818;6.516;2022-11-20T00:48:51;23.08;;;16.80;;
60722;SDS011;46574;52.818;6.516;2022-11-20T00:51:18;24.38;;;17.58;;
60722;SDS011;46574;52.818;6.516;2022-11-20T00:53:45;29.42;;;21.95;;
60722;SDS011;46574;52.818;6.516;2022-11-20T00:56:12;25.02;;;17.90;;
60722;SDS011;46574;52.818;6.516;2022-11-20T00:58:39;23.20;;;18.15;;
60722;SDS011;46574;52.818;6.516;2022-11-20T01:01:08;18.77;;;14.43;;
60722;SDS011;46574;52.818;6.516;2022-11-20T01:03:43;19.65;;;13.73;;
60722;SDS011;46574;52.818;6.516;2022-11-20T01:06:10;19.73;;;14.53;;
60722;SDS011;46574;52.818;6.516;2022-11-20T01:08:36;18.60;;;14.32;;
60722;SDS011;46574;52.818;6.516;2022-11-20T01:11:03;21.25;;;14.45;;
60722;SDS011;46574;52.818;6.516;2022-11-20T01:13:31;16.60;;;12.40;;
60722;SDS011;46574;52.818;6.516;2022-11-20T01:16:04;18.05;;;13.20;;
60722;SDS011;46574;52.818;6.516;2022-11-20T01:18:29;18.30;;;13.27;;
60722;SDS011;46574;52.818;6.516;2022-11-20T01:20:55;20.08;;;14.30;;
60722;SDS011;46574;52.818;6.516;2022-11-20T01:23:24;18.95;;;14.20;;
60722;SDS011;46574;52.818;6.516;2022-11-20T01:25:50;19.60;;;14.60;;
60722;SDS011;46574;52.818;6.516;2022-11-20T01:28:15;19.45;;;14.48;;
60722;SDS011;46574;52.818;6.516;2022-11-20T01:30:41;22.63;;;15.32;;
60722;SDS011;46574;52.818;6.516;2022-11-20T01:33:07;20.52;;;15.15;;
60722;SDS011;46574;52.818;6.516;2022-11-20T01:35:33;23.20;;;15.70;;
60722;SDS011;46574;52.818;6.516;2022-11-20T01:37:58;21.45;;;16.27;;
60722;SDS011;46574;52.818;6.516;2022-11-20T01:40:24;21.35;;;15.32;;
60722;SDS011;46574;52.818;6.516;2022-11-20T01:42:52;22.27;;;15.98;;
60722;SDS011;46574;52.818;6.516;2022-11-20T01:46:04;19.88;;;14.35;;
60722;SDS011;46574;52.818;6.516;2022-11-20T01:51:25;22.38;;;14.68;;
60722;SDS011;46574;52.818;6.516;2022-11-20T01:53:53;19.58;;;14.63;;
60722;SDS011;46574;52.818;6.516;2022-11-20T01:56:20;18.67;;;14.27;;
60722;SDS011;46574;52.818;6.516;2022-11-20T01:58:48;21.02;;;16.27;;
60722;SDS011;46574;52.818;6.516;2022-11-20T02:01:17;22.13;;;16.33;;
60722;SDS011;46574;52.818;6.516;2022-11-20T02:03:43;19.23;;;14.98;;
60722;SDS011;46574;52.818;6.516;2022-11-20T02:06:14;18.55;;;14.38;;
60722;SDS011;46574;52.818;6.516;2022-11-20T02:08:47;20.77;;;15.02;;
60722;SDS011;46574;52.818;6.516;2022-11-20T02:11:12;19.13;;;13.75;;
60722;SDS011;46574;52.818;6.516;2022-11-20T02:13:38;17.60;;;13.32;;
60722;SDS011;46574;52.818;6.516;2022-11-20T02:18:45;19.25;;;13.60;;
60722;SDS011;46574;52.818;6.516;2022-11-20T02:21:17;19.48;;;13.73;;
60722;SDS011;46574;52.818;6.516;2022-11-20T02:24:03;21.13;;;15.25;;
60722;SDS011;46574;52.818;6.516;2022-11-20T02:26:30;19.63;;;14.05;;
60722;SDS011;46574;52.818;6.516;2022-11-20T02:29:00;18.83;;;13.98;;
60722;SDS011;46574;52.818;6.516;2022-11-20T02:31:27;21.38;;;16.05;;
60722;SDS011;46574;52.818;6.516;2022-11-20T02:33:54;22.35;;;16.25;;
60722;SDS011;46574;52.818;6.516;2022-11-20T02:36:21;24.02;;;16.52;;
60722;SDS011;46574;52.818;6.516;2022-11-20T02:38:48;20.65;;;14.90;;
60722;SDS011;46574;52.818;6.516;2022-11-20T02:41:14;19.42;;;14.00;;
60722;SDS011;46574;52.818;6.516;2022-11-20T02:43:40;20.65;;;15.20;;
60722;SDS011;46574;52.818;6.516;2022-11-20T02:46:06;22.63;;;15.88;;
60722;SDS011;46574;52.818;6.516;2022-11-20T02:48:33;19.65;;;13.70;;
60722;SDS011;46574;52.818;6.516;2022-11-20T02:50:59;20.30;;;14.95;;
60722;SDS011;46574;52.818;6.516;2022-11-20T02:53:24;20.58;;;14.20;;
60722;SDS011;46574;52.818;6.516;2022-11-20T02:55:50;19.60;;;14.43;;
60722;SDS011;46574;52.818;6.516;2022-11-20T02:58:16;21.83;;;14.85;;
60722;SDS011;46574;52.818;6.516;2022-11-20T03:00:41;18.33;;;14.23;;
60722;SDS011;46574;52.818;6.516;2022-11-20T03:03:07;20.67;;;15.10;;
60722;SDS011;46574;52.818;6.516;2022-11-20T03:05:32;18.92;;;14.57;;
60722;SDS011;46574;52.818;6.516;2022-11-20T03:07:58;20.40;;;14.77;;
60722;SDS011;46574;52.818;6.516;2022-11-20T03:10:24;21.05;;;15.23;;
60722;SDS011;46574;52.818;6.516;2022-11-20T03:12:53;20.27;;;15.65;;
60722;SDS011;46574;52.818;6.516;2022-11-20T03:15:20;19.42;;;13.13;;
60722;SDS011;46574;52.818;6.516;2022-11-20T03:17:46;19.42;;;14.50;;
60722;SDS011;46574;52.818;6.516;2022-11-20T03:20:12;19.75;;;14.98;;
60722;SDS011;46574;52.818;6.516;2022-11-20T03:22:38;18.17;;;13.40;;
60722;SDS011;46574;52.818;6.516;2022-11-20T03:25:03;18.20;;;14.38;;
60722;SDS011;46574;52.818;6.516;2022-11-20T03:27:33;19.45;;;14.88;;
60722;SDS011;46574;52.818;6.516;2022-11-20T03:29:59;21.73;;;15.85;;
60722;SDS011;46574;52.818;6.516;2022-11-20T03:32:25;20.52;;;14.43;;
60722;SDS011;46574;52.818;6.516;2022-11-20T03:34:51;18.73;;;14.38;;
60722;SDS011;46574;52.818;6.516;2022-11-20T03:37:16;17.30;;;13.45;;
60722;SDS011;46574;52.818;6.516;2022-11-20T03:39:42;21.23;;;15.73;;
60722;SDS011;46574;52.818;6.516;2022-11-20T03:42:08;20.35;;;15.30;;
60722;SDS011;46574;52.818;6.516;2022-11-20T03:44:53;17.75;;;13.77;;
60722;SDS011;46574;52.818;6.516;2022-11-20T03:47:19;19.05;;;13.50;;
60722;SDS011;46574;52.818;6.516;2022-11-20T03:49:45;18.58;;;14.48;;
60722;SDS011;46574;52.818;6.516;2022-11-20T03:52:11;19.88;;;15.02;;
60722;SDS011;46574;52.818;6.516;2022-11-20T03:54:36;18.92;;;13.50;;
60722;SDS011;46574;52.818;6.516;2022-11-20T03:57:02;16.08;;;12.40;;
60722;SDS011;46574;52.818;6.516;2022-11-20T03:59:27;17.48;;;13.65;;
60722;SDS011;46574;52.818;6.516;2022-11-20T04:01:53;18.25;;;14.15;;
60722;SDS011;46574;52.818;6.516;2022-11-20T04:04:19;18.23;;;13.93;;
60722;SDS011;46574;52.818;6.516;2022-11-20T04:06:44;19.42;;;13.75;;
60722;SDS011;46574;52.818;6.516;2022-11-20T04:09:10;17.02;;;13.15;;
60722;SDS011;46574;52.818;6.516;2022-11-20T04:11:36;20.15;;;15.70;;
60722;SDS011;46574;52.818;6.516;2022-11-20T04:14:05;19.70;;;14.93;;
60722;SDS011;46574;52.818;6.516;2022-11-20T04:16:33;18.73;;;14.20;;
60722;SDS011;46574;52.818;6.516;2022-11-20T04:19:01;16.58;;;13.13;;
60722;SDS011;46574;52.818;6.516;2022-11-20T04:21:28;18.45;;;14.15;;
60722;SDS011;46574;52.818;6.516;2022-11-20T04:23:54;18.25;;;13.45;;
60722;SDS011;46574;52.818;6.516;2022-11-20T04:26:21;19.27;;;14.93;;
60722;SDS011;46574;52.818;6.516;2022-11-20T04:28:48;18.95;;;14.45;;
60722;SDS011;46574;52.818;6.516;2022-11-20T04:31:15;18.90;;;14.85;;
60722;SDS011;46574;52.818;6.516;2022-11-20T04:33:42;17.77;;;13.80;;
60722;SDS011;46574;52.818;6.516;2022-11-20T04:36:12;17.90;;;14.20;;
60722;SDS011;46574;52.818;6.516;2022-11-20T04:38:40;20.95;;;14.80;;
60722;SDS011;46574;52.818;6.516;2022-11-20T04:41:06;21.45;;;15.52;;
60722;SDS011;46574;52.818;6.516;2022-11-20T04:43:33;20.63;;;14.93;;
60722;SDS011;46574;52.818;6.516;2022-11-20T04:45:59;18.38;;;13.38;;
60722;SDS011;46574;52.818;6.516;2022-11-20T04:48:27;17.30;;;13.32;;
60722;SDS011;46574;52.818;6.516;2022-11-20T04:50:53;18.23;;;14.60;;
60722;SDS011;46574;52.818;6.516;2022-11-20T04:53:19;19.92;;;15.38;;
60722;SDS011;46574;52.818;6.516;2022-11-20T04:55:46;20.88;;;14.98;;
60722;SDS011;46574;52.818;6.516;2022-11-20T04:58:12;19.75;;;15.68;;
60722;SDS011;46574;52.818;6.516;2022-11-20T05:00:38;17.58;;;13.95;;
60722;SDS011;46574;52.818;6.516;2022-11-20T05:03:04;20.25;;;15.35;;
60722;SDS011;46574;52.818;6.516;2022-11-20T05:05:30;18.35;;;13.55;;
60722;SDS011;46574;52.818;6.516;2022-11-20T05:07:56;18.55;;;14.18;;
60722;SDS011;46574;52.818;6.516;2022-11-20T05:10:22;18.92;;;13.68;;
60722;SDS011;46574;52.818;6.516;2022-11-20T05:12:49;18.75;;;14.57;;
60722;SDS011;46574;52.818;6.516;2022-11-20T05:15:14;22.00;;;16.75;;
60722;SDS011;46574;52.818;6.516;2022-11-20T05:17:40;21.65;;;16.58;;
60722;SDS011;46574;52.818;6.516;2022-11-20T05:20:06;21.05;;;15.73;;
60722;SDS011;46574;52.818;6.516;2022-11-20T05:22:32;18.20;;;14.05;;
60722;SDS011;46574;52.818;6.516;2022-11-20T05:24:57;18.15;;;14.15;;
60722;SDS011;46574;52.818;6.516;2022-11-20T05:27:23;15.98;;;12.38;;
60722;SDS011;46574;52.818;6.516;2022-11-20T05:29:49;17.23;;;13.70;;
60722;SDS011;46574;52.818;6.516;2022-11-20T05:32:14;20.17;;;14.55;;
60722;SDS011;46574;52.818;6.516;2022-11-20T05:34:40;19.70;;;15.07;;
60722;SDS011;46574;52.818;6.516;2022-11-20T05:37:05;20.27;;;13.88;;
60722;SDS011;46574;52.818;6.516;2022-11-20T05:39:31;22.48;;;15.63;;
60722;SDS011;46574;52.818;6.516;2022-11-20T05:41:56;19.40;;;14.93;;
60722;SDS011;46574;52.818;6.516;2022-11-20T05:44:41;20.60;;;15.25;;
60722;SDS011;46574;52.818;6.516;2022-11-20T05:47:06;19.30;;;14.98;;
60722;SDS011;46574;52.818;6.516;2022-11-20T05:49:32;21.75;;;14.48;;
60722;SDS011;46574;52.818;6.516;2022-11-20T05:51:57;17.65;;;13.63;;
60722;SDS011;46574;52.818;6.516;2022-11-20T05:54:23;17.45;;;13.82;;
60722;SDS011;46574;52.818;6.516;2022-11-20T05:56:49;18.25;;;14.50;;
60722;SDS011;46574;52.818;6.516;2022-11-20T05:59:14;19.60;;;15.18;;
60722;SDS011;46574;52.818;6.516;2022-11-20T06:01:40;18.67;;;14.85;;
60722;SDS011;46574;52.818;6.516;2022-11-20T06:04:06;17.95;;;14.05;;
60722;SDS011;46574;52.818;6.516;2022-11-20T06:06:31;20.15;;;14.50;;
60722;SDS011;46574;52.818;6.516;2022-11-20T06:08:57;18.48;;;14.05;;
60722;SDS011;46574;52.818;6.516;2022-11-20T06:11:24;19.10;;;14.50;;
60722;SDS011;46574;52.818;6.516;2022-11-20T06:13:50;16.88;;;13.73;;
60722;SDS011;46574;52.818;6.516;2022-11-20T06:16:17;18.02;;;12.93;;
60722;SDS011;46574;52.818;6.516;2022-11-20T06:18:45;20.92;;;14.27;;
60722;SDS011;46574;52.818;6.516;2022-11-20T06:21:15;19.10;;;14.52;;
60722;SDS011;46574;52.818;6.516;2022-11-20T06:23:43;18.42;;;13.68;;
60722;SDS011;46574;52.818;6.516;2022-11-20T06:26:10;18.45;;;13.80;;
60722;SDS011;46574;52.818;6.516;2022-11-20T06:28:40;18.33;;;13.30;;
60722;SDS011;46574;52.818;6.516;2022-11-20T06:31:06;17.40;;;13.68;;
60722;SDS011;46574;52.818;6.516;2022-11-20T06:33:32;17.80;;;13.95;;
60722;SDS011;46574;52.818;6.516;2022-11-20T06:35:59;16.85;;;13.30;;
60722;SDS011;46574;52.818;6.516;2022-11-20T06:38:26;17.95;;;13.07;;
60722;SDS011;46574;52.818;6.516;2022-11-20T06:40:52;18.05;;;13.38;;
60722;SDS011;46574;52.818;6.516;2022-11-20T06:43:18;16.42;;;12.13;;
60722;SDS011;46574;52.818;6.516;2022-11-20T06:45:43;17.90;;;13.00;;
60722;SDS011;46574;52.818;6.516;2022-11-20T06:48:09;16.40;;;12.82;;
60722;SDS011;46574;52.818;6.516;2022-11-20T06:50:38;19.45;;;13.65;;
60722;SDS011;46574;52.818;6.516;2022-11-20T06:53:04;17.75;;;13.00;;
60722;SDS011;46574;52.818;6.516;2022-11-20T06:55:31;16.52;;;12.73;;
60722;SDS011;46574;52.818;6.516;2022-11-20T06:57:56;15.00;;;11.60;;
60722;SDS011;46574;52.818;6.516;2022-11-20T07:00:22;17.15;;;13.18;;
60722;SDS011;46574;52.818;6.516;2022-11-20T07:02:48;18.83;;;13.27;;
60722;SDS011;46574;52.818;6.516;2022-11-20T07:05:14;19.35;;;14.20;;
60722;SDS011;46574;52.818;6.516;2022-11-20T07:07:40;18.00;;;12.82;;
60722;SDS011;46574;52.818;6.516;2022-11-20T07:10:06;16.58;;;12.75;;
60722;SDS011;46574;52.818;6.516;2022-11-20T07:12:32;19.30;;;14.23;;
60722;SDS011;46574;52.818;6.516;2022-11-20T07:14:58;19.55;;;14.30;;
60722;SDS011;46574;52.818;6.516;2022-11-20T07:17:23;31.52;;;23.27;;
60722;SDS011;46574;52.818;6.516;2022-11-20T07:19:49;23.50;;;17.75;;
60722;SDS011;46574;52.818;6.516;2022-11-20T07:22:14;23.83;;;17.08;;
60722;SDS011;46574;52.818;6.516;2022-11-20T07:24:40;18.65;;;13.85;;
60722;SDS011;46574;52.818;6.516;2022-11-20T07:27:06;16.00;;;12.60;;
60722;SDS011;46574;52.818;6.516;2022-11-20T07:29:31;18.48;;;13.73;;
60722;SDS011;46574;52.818;6.516;2022-11-20T07:31:57;19.73;;;14.40;;
60722;SDS011;46574;52.818;6.516;2022-11-20T07:34:23;18.42;;;13.52;;
60722;SDS011;46574;52.818;6.516;2022-11-20T07:36:48;19.02;;;13.90;;
60722;SDS011;46574;52.818;6.516;2022-11-20T07:39:14;17.52;;;14.20;;
60722;SDS011;46574;52.818;6.516;2022-11-20T07:41:40;17.65;;;13.95;;
60722;SDS011;46574;52.818;6.516;2022-11-20T07:44:05;16.13;;;13.23;;
60722;SDS011;46574;52.818;6.516;2022-11-20T07:46:31;16.80;;;13.27;;
60722;SDS011;46574;52.818;6.516;2022-11-20T07:48:56;20.10;;;14.27;;
60722;SDS011;46574;52.818;6.516;2022-11-20T07:51:22;15.38;;;12.13;;
60722;SDS011;46574;52.818;6.516;2022-11-20T07:53:50;15.25;;;12.90;;
60722;SDS011;46574;52.818;6.516;2022-11-20T07:56:16;16.23;;;12.80;;
60722;SDS011;46574;52.818;6.516;2022-11-20T07:58:42;16.90;;;13.40;;
60722;SDS011;46574;52.818;6.516;2022-11-20T08:01:08;19.73;;;14.55;;
60722;SDS011;46574;52.818;6.516;2022-11-20T08:03:33;18.42;;;14.52;;
60722;SDS011;46574;52.818;6.516;2022-11-20T08:05:59;15.93;;;12.35;;
60722;SDS011;46574;52.818;6.516;2022-11-20T08:08:26;19.70;;;15.75;;
60722;SDS011;46574;52.818;6.516;2022-11-20T08:10:52;16.40;;;13.93;;
60722;SDS011;46574;52.818;6.516;2022-11-20T08:13:39;17.38;;;13.63;;
60722;SDS011;46574;52.818;6.516;2022-11-20T08:16:23;17.67;;;14.32;;
60722;SDS011;46574;52.818;6.516;2022-11-20T08:18:48;16.98;;;13.48;;
60722;SDS011;46574;52.818;6.516;2022-11-20T08:21:14;17.25;;;13.45;;
60722;SDS011;46574;52.818;6.516;2022-11-20T08:23:40;17.05;;;13.75;;
60722;SDS011;46574;52.818;6.516;2022-11-20T08:26:06;20.05;;;14.23;;
60722;SDS011;46574;52.818;6.516;2022-11-20T08:28:31;19.35;;;13.68;;
60722;SDS011;46574;52.818;6.516;2022-11-20T08:30:58;18.65;;;14.30;;
60722;SDS011;46574;52.818;6.516;2022-11-20T08:33:24;17.23;;;13.20;;
60722;SDS011;46574;52.818;6.516;2022-11-20T08:35:50;17.92;;;14.18;;
60722;SDS011;46574;52.818;6.516;2022-11-20T08:38:15;16.98;;;13.18;;
60722;SDS011;46574;52.818;6.516;2022-11-20T08:40:41;18.73;;;14.00;;
60722;SDS011;46574;52.818;6.516;2022-11-20T08:43:27;15.65;;;12.98;;
60722;SDS011;46574;52.818;6.516;2022-11-20T08:45:52;17.52;;;12.38;;
60722;SDS011;46574;52.818;6.516;2022-11-20T08:48:18;19.23;;;13.63;;
60722;SDS011;46574;52.818;6.516;2022-11-20T08:50:44;16.10;;;13.00;;
60722;SDS011;46574;52.818;6.516;2022-11-20T08:53:09;14.63;;;13.02;;
60722;SDS011;46574;52.818;6.516;2022-11-20T08:55:35;16.38;;;12.75;;
60722;SDS011;46574;52.818;6.516;2022-11-20T08:58:05;16.40;;;13.45;;
60722;SDS011;46574;52.818;6.516;2022-11-20T09:00:32;16.08;;;13.18;;
60722;SDS011;46574;52.818;6.516;2022-11-20T09:02:58;16.95;;;13.27;;
60722;SDS011;46574;52.818;6.516;2022-11-20T09:05:25;17.90;;;13.48;;
60722;SDS011;46574;52.818;6.516;2022-11-20T09:07:52;17.92;;;13.05;;
60722;SDS011;46574;52.818;6.516;2022-11-20T09:12:48;16.00;;;11.93;;
60722;SDS011;46574;52.818;6.516;2022-11-20T09:15:14;16.50;;;12.25;;
60722;SDS011;46574;52.818;6.516;2022-11-20T09:17:40;17.00;;;12.35;;
60722;SDS011;46574;52.818;6.516;2022-11-20T09:20:05;17.13;;;12.98;;
60722;SDS011;46574;52.818;6.516;2022-11-20T09:22:31;15.50;;;12.45;;
60722;SDS011;46574;52.818;6.516;2022-11-20T09:24:57;15.98;;;12.15;;
60722;SDS011;46574;52.818;6.516;2022-11-20T09:27:23;16.65;;;11.60;;
60722;SDS011;46574;52.818;6.516;2022-11-20T09:29:49;16.48;;;12.18;;
60722;SDS011;46574;52.818;6.516;2022-11-20T09:32:14;15.25;;;12.48;;
60722;SDS011;46574;52.818;6.516;2022-11-20T09:34:40;16.25;;;12.80;;
60722;SDS011;46574;52.818;6.516;2022-11-20T09:37:05;13.98;;;11.50;;
60722;SDS011;46574;52.818;6.516;2022-11-20T09:39:31;15.63;;;11.32;;
60722;SDS011;46574;52.818;6.516;2022-11-20T09:42:40;14.88;;;12.13;;
60722;SDS011;46574;52.818;6.516;2022-11-20T09:55:38;14.82;;;11.20;;
60722;SDS011;46574;52.818;6.516;2022-11-20T09:58:05;14.25;;;11.77;;
60722;SDS011;46574;52.818;6.516;2022-11-20T10:00:32;11.27;;;10.07;;
60722;SDS011;46574;52.818;6.516;2022-11-20T10:03:06;14.87;;;13.03;;
60722;SDS011;46574;52.818;6.516;2022-11-20T10:05:47;13.18;;;11.77;;
60722;SDS011;46574;52.818;6.516;2022-11-20T10:08:19;15.07;;;11.07;;
60722;SDS011;46574;52.818;6.516;2022-11-20T10:13:36;15.13;;;12.20;;
60722;SDS011;46574;52.818;6.516;2022-11-20T10:16:17;12.80;;;9.70;;
60722;SDS011;46574;52.818;6.516;2022-11-20T10:27:06;10.73;;;9.38;;
60722;SDS011;46574;52.818;6.516;2022-11-20T10:29:34;13.02;;;9.88;;
60722;SDS011;46574;52.818;6.516;2022-11-20T10:32:04;11.25;;;9.73;;
60722;SDS011;46574;52.818;6.516;2022-11-20T10:34:57;12.07;;;10.77;;
60722;SDS011;46574;52.818;6.516;2022-11-20T10:37:29;13.88;;;9.75;;
60722;SDS011;46574;52.818;6.516;2022-11-20T10:42:36;12.13;;;9.90;;
60722;SDS011;46574;52.818;6.516;2022-11-20T10:45:20;11.90;;;9.32;;
60722;SDS011;46574;52.818;6.516;2022-11-20T10:48:04;11.63;;;9.40;;
60722;SDS011;46574;52.818;6.516;2022-11-20T10:50:40;10.73;;;8.90;;
60722;SDS011;46574;52.818;6.516;2022-11-20T10:54:01;10.70;;;9.32;;
60722;SDS011;46574;52.818;6.516;2022-11-20T10:56:20;11.57;;;9.40;;
60722;SDS011;46574;52.818;6.516;2022-11-20T11:02:17;9.85;;;8.60;;
60722;SDS011;46574;52.818;6.516;2022-11-20T11:04:54;10.77;;;8.65;;
60722;SDS011;46574;52.818;6.516;2022-11-20T11:07:35;9.40;;;8.20;;
60722;SDS011;46574;52.818;6.516;2022-11-20T11:10:12;13.65;;;8.80;;
60722;SDS011;46574;52.818;6.516;2022-11-20T11:12:43;11.57;;;8.70;;
60722;SDS011;46574;52.818;6.516;2022-11-20T11:17:52;9.70;;;8.40;;
60722;SDS011;46574;52.818;6.516;2022-11-20T11:20:19;9.50;;;8.50;;
60722;SDS011;46574;52.818;6.516;2022-11-20T11:27:53;9.25;;;7.85;;
60722;SDS011;46574;52.818;6.516;2022-11-20T11:30:21;10.45;;;8.70;;
60722;SDS011;46574;52.818;6.516;2022-11-20T11:33:09;13.38;;;8.85;;
60722;SDS011;46574;52.818;6.516;2022-11-20T11:35:53;9.57;;;8.20;;
60722;SDS011;46574;52.818;6.516;2022-11-20T11:38:28;11.32;;;9.18;;
60722;SDS011;46574;52.818;6.516;2022-11-20T11:41:09;11.10;;;8.52;;
60722;SDS011;46574;52.818;6.516;2022-11-20T11:43:48;10.45;;;9.20;;
60722;SDS011;46574;52.818;6.516;2022-11-20T11:46:49;8.98;;;7.78;;
60722;SDS011;46574;52.818;6.516;2022-11-20T11:49:21;10.02;;;8.07;;
60722;SDS011;46574;52.818;6.516;2022-11-20T12:00:33;11.52;;;8.88;;
60722;SDS011;46574;52.818;6.516;2022-11-20T12:03:04;11.27;;;9.00;;
60722;SDS011;46574;52.818;6.516;2022-11-20T12:05:42;10.82;;;8.90;;
60722;SDS011;46574;52.818;6.516;2022-11-20T12:08:26;14.82;;;11.65;;
60722;SDS011;46574;52.818;6.516;2022-11-20T12:11:30;15.25;;;13.05;;
60722;SDS011;46574;52.818;6.516;2022-11-20T12:14:04;12.52;;;11.20;;
60722;SDS011;46574;52.818;6.516;2022-11-20T12:16:52;11.52;;;10.00;;
60722;SDS011;46574;52.818;6.516;2022-11-20T12:19:20;10.80;;;9.65;;
60722;SDS011;46574;52.818;6.516;2022-11-20T12:21:49;12.77;;;10.75;;
60722;SDS011;46574;52.818;6.516;2022-11-20T12:25:24;12.02;;;9.82;;
60722;SDS011;46574;52.818;6.516;2022-11-20T12:27:44;11.07;;;9.30;;
60722;SDS011;46574;52.818;6.516;2022-11-20T12:39:06;12.65;;;11.00;;
60722;SDS011;46574;52.818;6.516;2022-11-20T12:45:02;12.65;;;10.25;;
60722;SDS011;46574;52.818;6.516;2022-11-20T12:47:49;13.73;;;10.77;;
60722;SDS011;46574;52.818;6.516;2022-11-20T12:58:49;13.55;;;10.80;;
60722;SDS011;46574;52.818;6.516;2022-11-20T13:06:50;13.77;;;10.10;;
60722;SDS011;46574;52.818;6.516;2022-11-20T13:09:17;12.93;;;10.45;;
60722;SDS011;46574;52.818;6.516;2022-11-20T13:14:42;14.90;;;11.50;;
60722;SDS011;46574;52.818;6.516;2022-11-20T13:17:31;13.73;;;11.57;;
60722;SDS011;46574;52.818;6.516;2022-11-20T13:20:17;13.20;;;11.00;;
60722;SDS011;46574;52.818;6.516;2022-11-20T13:22:48;14.40;;;12.10;;
60722;SDS011;46574;52.818;6.516;2022-11-20T13:25:38;14.05;;;11.75;;
60722;SDS011;46574;52.818;6.516;2022-11-20T13:28:27;17.98;;;14.90;;
60722;SDS011;46574;52.818;6.516;2022-11-20T13:30:55;14.55;;;12.32;;
60722;SDS011;46574;52.818;6.516;2022-11-20T13:36:06;13.55;;;11.90;;
60722;SDS011;46574;52.818;6.516;2022-11-20T13:38:47;14.20;;;12.00;;
60722;SDS011;46574;52.818;6.516;2022-11-20T13:41:24;13.77;;;11.07;;
60722;SDS011;46574;52.818;6.516;2022-11-20T13:46:35;11.95;;;10.60;;
60722;SDS011;46574;52.818;6.516;2022-11-20T13:49:09;13.63;;;11.63;;
60722;SDS011;46574;52.818;6.516;2022-11-20T13:51:54;13.73;;;11.10;;
60722;SDS011;46574;52.818;6.516;2022-11-20T13:54:49;14.48;;;11.82;;
60722;SDS011;46574;52.818;6.516;2022-11-20T13:57:39;12.95;;;11.10;;
60722;SDS011;46574;52.818;6.516;2022-11-20T14:00:22;13.68;;;11.73;;
60722;SDS011;46574;52.818;6.516;2022-11-20T14:05:30;18.33;;;15.32;;
60722;SDS011;46574;52.818;6.516;2022-11-20T14:08:00;20.85;;;16.85;;
60722;SDS011;46574;52.818;6.516;2022-11-20T14:10:29;13.80;;;11.45;;
60722;SDS011;46574;52.818;6.516;2022-11-20T14:12:55;13.75;;;11.30;;
60722;SDS011;46574;52.818;6.516;2022-11-20T14:15:24;13.75;;;11.68;;
60722;SDS011;46574;52.818;6.516;2022-11-20T14:17:54;12.85;;;11.45;;
60722;SDS011;46574;52.818;6.516;2022-11-20T14:20:21;15.77;;;13.15;;
60722;SDS011;46574;52.818;6.516;2022-11-20T14:22:51;12.80;;;11.35;;
60722;SDS011;46574;52.818;6.516;2022-11-20T14:28:04;14.02;;;11.95;;
60722;SDS011;46574;52.818;6.516;2022-11-20T14:30:36;14.30;;;12.18;;
60722;SDS011;46574;52.818;6.516;2022-11-20T14:33:10;14.68;;;11.93;;
60722;SDS011;46574;52.818;6.516;2022-11-20T14:35:39;14.80;;;12.00;;
60722;SDS011;46574;52.818;6.516;2022-11-20T14:38:10;13.82;;;12.32;;
60722;SDS011;46574;52.818;6.516;2022-11-20T14:40:38;14.70;;;12.23;;
60722;SDS011;46574;52.818;6.516;2022-11-20T14:45:55;12.45;;;11.15;;
60722;SDS011;46574;52.818;6.516;2022-11-20T14:48:38;14.80;;;12.85;;
60722;SDS011;46574;52.818;6.516;2022-11-20T14:51:29;14.90;;;13.05;;
60722;SDS011;46574;52.818;6.516;2022-11-20T14:54:07;14.98;;;11.55;;
60722;SDS011;46574;52.818;6.516;2022-11-20T14:56:33;13.27;;;11.10;;
60722;SDS011;46574;52.818;6.516;2022-11-20T14:58:59;16.25;;;13.93;;
60722;SDS011;46574;52.818;6.516;2022-11-20T15:01:26;13.18;;;11.07;;
60722;SDS011;46574;52.818;6.516;2022-11-20T15:04:00;16.15;;;12.85;;
60722;SDS011;46574;52.818;6.516;2022-11-20T15:06:29;15.13;;;13.05;;
60722;SDS011;46574;52.818;6.516;2022-11-20T15:08:56;15.95;;;12.63;;
60722;SDS011;46574;52.818;6.516;2022-11-20T15:11:32;17.75;;;14.25;;
60722;SDS011;46574;52.818;6.516;2022-11-20T15:14:04;14.55;;;12.10;;
60722;SDS011;46574;52.818;6.516;2022-11-20T15:16:31;15.38;;;13.18;;
60722;SDS011;46574;52.818;6.516;2022-11-20T15:18:57;15.60;;;13.32;;
60722;SDS011;46574;52.818;6.516;2022-11-20T15:21:23;18.85;;;13.10;;
60722;SDS011;46574;52.818;6.516;2022-11-20T15:23:49;15.82;;;13.00;;
60722;SDS011;46574;52.818;6.516;2022-11-20T15:26:18;16.05;;;13.95;;
60722;SDS011;46574;52.818;6.516;2022-11-20T15:31:21;18.35;;;15.68;;
60722;SDS011;46574;52.818;6.516;2022-11-20T15:33:48;17.60;;;14.13;;
60722;SDS011;46574;52.818;6.516;2022-11-20T15:36:14;19.42;;;16.33;;
60722;SDS011;46574;52.818;6.516;2022-11-20T15:38:40;20.23;;;16.15;;
60722;SDS011;46574;52.818;6.516;2022-11-20T15:41:05;18.25;;;15.25;;
60722;SDS011;46574;52.818;6.516;2022-11-20T15:43:32;20.13;;;16.08;;
60722;SDS011;46574;52.818;6.516;2022-11-20T15:46:16;20.70;;;16.23;;
60722;SDS011;46574;52.818;6.516;2022-11-20T15:48:53;19.25;;;16.13;;
60722;SDS011;46574;52.818;6.516;2022-11-20T15:51:27;23.27;;;16.98;;
60722;SDS011;46574;52.818;6.516;2022-11-20T15:53:56;20.38;;;16.75;;
60722;SDS011;46574;52.818;6.516;2022-11-20T15:56:23;20.42;;;16.60;;
60722;SDS011;46574;52.818;6.516;2022-11-20T15:58:49;20.83;;;16.40;;
60722;SDS011;46574;52.818;6.516;2022-11-20T16:01:15;23.30;;;17.45;;
60722;SDS011;46574;52.818;6.516;2022-11-20T16:03:42;20.98;;;17.77;;
60722;SDS011;46574;52.818;6.516;2022-11-20T16:06:08;21.08;;;16.98;;
60722;SDS011;46574;52.818;6.516;2022-11-20T16:08:34;21.95;;;17.67;;
60722;SDS011;46574;52.818;6.516;2022-11-20T16:11:00;22.40;;;17.65;;
60722;SDS011;46574;52.818;6.516;2022-11-20T16:13:25;23.60;;;18.23;;